createdAt,value
2017-10-03T00:00:48.406Z,97680.86
2017-10-03T00:03:16.446Z,97672.59
2017-10-03T00:05:43.987Z,97663.85
2017-10-03T00:08:11.638Z,97655.73
2017-10-03T00:10:39.348Z,97646.16
2017-10-03T00:13:06.933Z,97646.05
2017-10-03T00:15:34.469Z,97644.92
2017-10-03T00:18:02.022Z,97641.03
2017-10-03T00:20:29.660Z,97630.38
2017-10-03T00:22:57.806Z,97632.95
2017-10-03T00:25:25.406Z,97627.52
2017-10-03T00:27:52.897Z,97620.55
2017-10-03T00:30:20.428Z,97610.73
2017-10-03T00:32:47.923Z,97598.56
2017-10-03T00:35:15.447Z,97585.30
2017-10-03T00:37:43.054Z,97582.08
2017-10-03T00:40:10.559Z,97575.78
2017-10-03T00:42:38.188Z,97569.41
2017-10-03T00:45:05.826Z,97557.01
2017-10-03T00:47:33.461Z,97562.30
2017-10-03T00:50:01.341Z,97559.60
2017-10-03T00:52:28.895Z,97555.66
2017-10-03T00:54:57.220Z,97552.07
2017-10-03T00:57:24.758Z,97538.56
2017-10-03T00:59:52.358Z,97539.83
2017-10-03T01:02:20.032Z,97538.16
2017-10-03T01:04:47.540Z,97527.88
2017-10-03T01:07:15.075Z,97520.69
2017-10-03T01:09:42.646Z,97508.07
2017-10-03T01:14:43.809Z,97497.46
2017-10-03T01:17:11.327Z,97492.66
2017-10-03T01:19:38.830Z,97482.69
2017-10-03T01:22:06.396Z,97475.39
2017-10-03T01:24:33.913Z,97464.95
2017-10-03T01:27:01.437Z,97463.84
2017-10-03T01:29:28.977Z,97456.06
2017-10-03T01:31:57.226Z,97456.55
2017-10-03T01:34:24.727Z,97453.32
2017-10-03T01:36:52.195Z,97440.41
2017-10-03T01:39:19.695Z,97409.78
2017-10-03T01:41:47.165Z,97425.33
2017-10-03T01:44:14.808Z,97423.17
2017-10-03T01:46:42.375Z,97418.42
2017-10-03T01:49:10.004Z,97417.66
2017-10-03T01:51:37.498Z,97407.14
2017-10-03T01:54:04.959Z,97400.46
2017-10-03T01:56:32.464Z,97394.57
2017-10-03T01:59:00.059Z,97386.92
2017-10-03T02:01:27.628Z,97378.04
2017-10-03T02:03:55.200Z,97369.95
2017-10-03T02:06:22.735Z,97363.89
2017-10-03T02:08:50.268Z,97360.84
2017-10-03T02:11:17.727Z,97359.25
2017-10-03T02:13:45.232Z,97354.28
2017-10-03T02:16:12.696Z,97354.40
2017-10-03T02:18:40.215Z,97344.99
2017-10-03T02:21:07.810Z,97336.75
2017-10-03T02:23:35.323Z,97333.49
2017-10-03T02:26:10.408Z,97334.42
2017-10-03T02:28:37.996Z,97328.83
2017-10-03T02:31:05.745Z,97321.30
2017-10-03T02:33:33.309Z,97320.22
2017-10-03T02:36:01.160Z,97315.08
2017-10-03T02:38:29.012Z,97297.02
2017-10-03T02:40:56.515Z,97292.73
2017-10-03T02:43:24.029Z,97285.77
2017-10-03T02:45:52.029Z,97269.94
2017-10-03T02:48:19.651Z,97268.95
2017-10-03T02:50:47.274Z,97270.20
2017-10-03T02:53:14.880Z,97267.38
2017-10-03T02:55:42.422Z,97258.13
2017-10-03T02:58:10.578Z,97248.84
2017-10-03T03:00:38.174Z,97254.92
2017-10-03T03:03:05.744Z,97250.58
2017-10-03T03:05:33.246Z,97246.50
2017-10-03T03:08:05.650Z,97243.73
2017-10-03T03:10:33.141Z,97235.33
2017-10-03T03:13:00.671Z,97230.86
2017-10-03T03:15:28.169Z,97230.75
2017-10-03T03:17:55.652Z,97225.54
2017-10-03T03:20:23.296Z,97222.94
2017-10-03T03:22:50.900Z,97225.03
2017-10-03T03:27:52.527Z,97215.58
2017-10-03T03:30:20.025Z,97195.86
2017-10-03T03:32:47.506Z,97197.50
2017-10-03T03:35:14.966Z,97206.53
2017-10-03T03:37:42.430Z,97215.10
2017-10-03T03:40:10.442Z,97219.63
2017-10-03T03:42:38.890Z,97231.56
2017-10-03T03:45:06.392Z,97230.47
2017-10-03T03:47:33.888Z,97247.84
2017-10-03T03:50:01.349Z,97278.76
2017-10-03T03:52:28.957Z,97339.48
2017-10-03T03:54:56.680Z,97403.63
2017-10-03T03:57:24.235Z,97385.45
2017-10-03T03:59:51.739Z,97402.08
2017-10-03T04:02:19.889Z,97409.55
2017-10-03T04:04:47.367Z,97375.12
2017-10-03T04:07:14.948Z,97378.20
2017-10-03T04:09:43.215Z,97394.37
2017-10-03T04:12:10.720Z,97402.81
2017-10-03T04:14:39.067Z,97413.39
2017-10-03T04:17:06.614Z,97430.98
2017-10-03T04:19:34.128Z,97434.72
2017-10-03T04:22:02.928Z,97358.95
2017-10-03T04:24:30.402Z,97407.83
2017-10-03T04:26:57.934Z,97398.91
2017-10-03T04:29:26.577Z,97418.03
2017-10-03T04:31:55.055Z,97431.06
2017-10-03T04:34:22.639Z,97447.36
2017-10-03T04:36:50.160Z,97460.73
2017-10-03T04:39:17.781Z,97460.71
2017-10-03T04:41:45.583Z,97445.70
2017-10-03T04:44:13.195Z,97442.43
2017-10-03T04:46:40.756Z,97451.09
2017-10-03T04:49:08.329Z,97453.91
2017-10-03T04:51:35.997Z,97463.40
2017-10-03T04:54:03.532Z,97478.82
2017-10-03T04:56:31.198Z,97476.27
2017-10-03T04:58:59.301Z,97489.91
2017-10-03T05:01:28.142Z,97492.22
2017-10-03T05:03:55.682Z,97484.52
2017-10-03T05:06:23.843Z,97494.27
2017-10-03T05:08:51.327Z,97484.98
2017-10-03T05:11:19.810Z,97490.31
2017-10-03T05:13:47.342Z,97494.83
2017-10-03T05:16:14.891Z,97497.23
2017-10-03T05:18:42.666Z,97497.05
2017-10-03T05:21:11.386Z,97511.31
2017-10-03T05:23:39.042Z,97514.79
2017-10-03T05:26:06.622Z,97520.92
2017-10-03T05:28:34.266Z,97548.54
2017-10-03T05:31:01.786Z,97564.19
2017-10-03T05:33:29.310Z,97580.62
2017-10-03T05:35:56.801Z,97573.15
2017-10-03T05:38:24.319Z,97584.95
2017-10-03T05:40:51.828Z,97595.95
2017-10-03T05:43:19.309Z,97585.45
2017-10-03T05:45:46.792Z,97609.80
2017-10-03T05:48:14.261Z,97607.85
2017-10-03T05:50:41.745Z,97612.91
2017-10-03T05:53:09.213Z,97627.39
2017-10-03T05:55:36.991Z,97633.40
2017-10-03T05:58:04.559Z,97634.95
2017-10-03T06:00:32.044Z,97650.55
2017-10-03T06:02:59.669Z,97665.69
2017-10-03T06:05:27.178Z,97677.21
2017-10-03T06:07:54.678Z,97680.92
2017-10-03T06:10:22.194Z,97693.42
2017-10-03T06:12:49.697Z,97700.18
2017-10-03T06:15:17.241Z,97701.97
2017-10-03T06:17:44.725Z,97705.51
2017-10-03T06:20:12.234Z,97712.18
2017-10-03T06:22:39.748Z,97720.88
2017-10-03T06:25:07.367Z,97728.84
2017-10-03T06:27:34.897Z,97736.64
2017-10-03T06:30:02.540Z,97729.75
2017-10-03T06:32:30.136Z,97734.09
2017-10-03T06:34:57.728Z,97730.91
2017-10-03T06:37:25.223Z,97743.86
2017-10-03T06:39:52.759Z,97710.61
2017-10-03T06:42:20.249Z,97711.88
2017-10-03T06:44:47.728Z,97704.30
2017-10-03T06:47:15.317Z,97666.67
2017-10-03T06:49:42.844Z,97647.64
2017-10-03T06:52:10.376Z,97672.79
2017-10-03T06:54:37.951Z,97696.83
2017-10-03T06:57:05.488Z,97709.39
2017-10-03T06:59:33.031Z,97725.27
2017-10-03T07:02:01.362Z,97726.66
2017-10-03T07:04:28.902Z,97731.30
2017-10-03T07:06:56.453Z,97744.97
2017-10-03T07:09:24.040Z,97738.42
2017-10-03T07:11:51.599Z,97728.56
2017-10-03T07:14:19.208Z,97741.59
2017-10-03T07:16:46.748Z,97754.92
2017-10-03T07:19:14.318Z,97771.33
2017-10-03T07:21:41.920Z,97770.34
2017-10-03T07:24:09.493Z,97772.33
2017-10-03T07:26:37.034Z,97779.31
2017-10-03T07:29:04.680Z,97783.39
2017-10-03T07:31:32.155Z,97791.86
2017-10-03T07:33:59.674Z,97763.77
2017-10-03T07:36:27.161Z,97775.20
2017-10-03T07:38:55.296Z,97792.65
2017-10-03T07:41:22.751Z,97815.14
2017-10-03T07:43:50.276Z,97812.58
2017-10-03T07:46:17.855Z,97822.17
2017-10-03T07:48:45.619Z,97832.19
2017-10-03T07:51:13.123Z,97820.87
2017-10-03T07:53:40.617Z,97822.69
2017-10-03T07:56:08.107Z,97844.39
2017-10-03T07:58:35.638Z,97850.90
2017-10-03T08:01:03.179Z,97864.38
2017-10-03T08:03:30.750Z,97881.20
2017-10-03T08:05:58.389Z,97868.52
2017-10-03T08:08:25.949Z,97863.47
2017-10-03T08:10:53.449Z,97866.81
2017-10-03T08:13:21.099Z,97865.82
2017-10-03T08:15:48.715Z,97873.70
2017-10-03T08:18:16.852Z,97874.59
2017-10-03T08:20:44.418Z,97878.40
2017-10-03T08:23:11.966Z,97887.15
2017-10-03T08:25:41.240Z,97886.40
2017-10-03T08:28:08.866Z,97889.57
2017-10-03T08:30:36.525Z,97894.08
2017-10-03T08:33:04.221Z,97894.47
2017-10-03T08:35:31.756Z,97893.17
2017-10-03T08:37:59.298Z,97896.95
2017-10-03T08:40:26.892Z,97891.13
2017-10-03T08:42:54.485Z,97902.57
2017-10-03T08:45:22.001Z,97917.89
2017-10-03T08:47:49.517Z,97925.04
2017-10-03T08:50:17.088Z,97929.35
2017-10-03T08:52:44.595Z,97933.95
2017-10-03T08:55:12.151Z,97940.00
2017-10-03T08:57:39.727Z,97935.45
2017-10-03T09:00:07.425Z,97947.02
2017-10-03T09:02:35.082Z,97948.75
2017-10-03T09:05:02.666Z,97954.70
2017-10-03T09:07:30.242Z,97950.72
2017-10-03T09:09:57.748Z,97944.66
2017-10-03T09:12:25.359Z,97959.89
2017-10-03T09:14:53.126Z,97959.13
2017-10-03T09:17:20.609Z,97968.80
2017-10-03T09:19:48.083Z,97974.34
2017-10-03T09:22:15.610Z,97987.03
2017-10-03T09:24:43.116Z,97994.61
2017-10-03T09:27:10.587Z,97999.98
2017-10-03T09:29:38.087Z,98000.09
2017-10-03T09:32:05.556Z,98007.06
2017-10-03T09:34:33.030Z,98021.89
2017-10-03T09:37:00.521Z,98018.23
2017-10-03T09:39:28.041Z,98024.40
2017-10-03T09:41:55.508Z,98035.49
2017-10-03T09:44:23.973Z,98037.84
2017-10-03T09:46:51.497Z,98054.45
2017-10-03T09:49:18.992Z,98052.63
2017-10-03T09:51:47.439Z,98039.09
2017-10-03T09:54:15.162Z,98070.84
2017-10-03T09:56:46.846Z,98075.36
2017-10-03T09:59:14.342Z,98087.22
2017-10-03T10:01:41.868Z,98077.05
2017-10-03T10:04:09.683Z,98079.13
2017-10-03T10:06:38.092Z,98078.48
2017-10-03T10:09:05.583Z,98084.64
2017-10-03T10:11:33.051Z,98083.55
2017-10-03T10:14:00.556Z,98088.23
2017-10-03T10:16:28.021Z,98092.02
2017-10-03T10:18:55.515Z,98097.19
2017-10-03T10:21:23.233Z,98098.33
2017-10-03T10:23:50.732Z,98092.90
2017-10-03T10:26:18.265Z,98094.64
2017-10-03T10:28:45.804Z,98096.84
2017-10-03T10:31:13.313Z,98098.30
2017-10-03T10:33:40.773Z,98100.45
2017-10-03T10:36:08.267Z,98101.63
2017-10-03T10:38:35.728Z,98091.91
2017-10-03T10:41:03.228Z,98104.99
2017-10-03T10:43:30.808Z,98111.47
2017-10-03T10:45:58.300Z,98115.06
2017-10-03T10:48:25.836Z,98117.16
2017-10-03T10:50:53.398Z,98112.82
2017-10-03T10:53:21.248Z,98122.31
2017-10-03T10:55:48.783Z,98127.64
2017-10-03T10:58:16.247Z,98121.98
2017-10-03T11:00:43.751Z,98133.16
2017-10-03T11:03:11.211Z,98132.06
2017-10-03T11:05:38.925Z,98144.70
2017-10-03T11:08:06.448Z,98147.05
2017-10-03T11:10:33.919Z,98140.15
2017-10-03T11:13:01.418Z,98138.33
2017-10-03T11:15:28.895Z,98145.78
2017-10-03T11:17:56.518Z,98141.56
2017-10-03T11:20:24.344Z,98141.83
2017-10-03T11:23:03.586Z,98136.63
2017-10-03T11:25:31.732Z,98143.86
2017-10-03T11:27:59.259Z,98146.47
2017-10-03T11:30:26.753Z,98149.62
2017-10-03T11:32:54.225Z,98145.77
2017-10-03T11:35:21.741Z,98142.09
2017-10-03T11:37:49.289Z,98141.82
2017-10-03T11:40:16.859Z,98144.17
2017-10-03T11:42:44.467Z,98150.36
2017-10-03T11:45:12.010Z,98161.38
2017-10-03T11:47:39.513Z,98155.06
2017-10-03T11:50:07.026Z,98156.22
2017-10-03T11:52:36.727Z,98158.44
2017-10-03T11:55:04.293Z,98160.53
2017-10-03T11:57:31.849Z,98165.46
2017-10-03T11:59:59.442Z,98164.46
2017-10-03T12:02:27.014Z,98165.95
2017-10-03T12:04:54.569Z,98173.02
2017-10-03T12:07:22.072Z,98182.53
2017-10-03T12:09:49.682Z,98181.95
2017-10-03T12:12:17.420Z,98183.59
2017-10-03T12:14:44.940Z,98192.47
2017-10-03T12:17:12.462Z,98185.86
2017-10-03T12:19:39.994Z,98192.95
2017-10-03T12:22:08.256Z,98199.52
2017-10-03T12:24:35.749Z,98201.09
2017-10-03T12:27:03.273Z,98204.30
2017-10-03T12:29:30.762Z,98203.96
2017-10-03T12:31:58.289Z,98197.50
2017-10-03T12:34:25.779Z,98203.80
2017-10-03T12:36:53.260Z,98197.01
2017-10-03T12:39:21.192Z,98205.06
2017-10-03T12:41:49.929Z,98204.93
2017-10-03T12:44:21.372Z,98196.70
2017-10-03T12:46:48.926Z,98201.02
2017-10-03T12:49:16.417Z,98204.75
2017-10-03T12:51:44.815Z,98198.81
2017-10-03T12:54:13.498Z,98201.30
2017-10-03T12:56:42.058Z,98204.26
2017-10-03T12:59:13.608Z,98203.89
2017-10-03T13:01:42.348Z,98206.38
2017-10-03T13:04:10.984Z,98205.49
2017-10-03T13:06:38.533Z,98211.53
2017-10-03T13:09:06.698Z,98220.05
2017-10-03T13:11:34.762Z,98220.39
2017-10-03T13:14:05.612Z,98223.78
2017-10-03T13:16:34.009Z,98222.65
2017-10-03T13:19:04.462Z,98222.19
2017-10-03T13:21:35.655Z,98231.45
2017-10-03T13:24:03.173Z,98231.31
2017-10-03T13:26:30.723Z,98232.35
2017-10-03T13:28:58.352Z,98236.33
2017-10-03T13:31:31.221Z,98247.63
2017-10-03T13:33:59.930Z,98244.03
2017-10-03T13:36:27.626Z,98250.48
2017-10-03T13:38:55.546Z,98259.05
2017-10-03T13:41:23.117Z,98256.44
2017-10-03T13:43:50.716Z,98244.23
2017-10-03T13:46:18.333Z,98259.52
2017-10-03T13:48:46.325Z,98262.06
2017-10-03T13:51:13.884Z,98250.38
2017-10-03T13:53:41.901Z,98247.86
2017-10-03T13:56:09.487Z,98248.37
2017-10-03T13:58:37.236Z,98249.84
2017-10-03T14:01:05.656Z,98247.72
2017-10-03T14:03:35.552Z,98251.24
2017-10-03T14:06:04.532Z,98247.11
2017-10-03T14:08:32.197Z,98252.20
2017-10-03T14:11:00.121Z,98258.36
2017-10-03T14:13:27.742Z,98254.92
2017-10-03T14:16:00.388Z,98265.56
2017-10-03T14:18:28.893Z,98266.62
2017-10-03T14:20:56.491Z,98267.88
2017-10-03T14:23:24.070Z,98264.86
2017-10-03T14:25:51.630Z,98265.22
2017-10-03T14:28:19.165Z,98264.19
2017-10-03T14:30:46.661Z,98258.73
2017-10-03T14:33:14.820Z,98262.83
2017-10-03T14:35:42.321Z,98265.20
2017-10-03T14:38:10.292Z,98260.75
2017-10-03T14:40:37.827Z,98257.58
2017-10-03T14:43:06.995Z,98252.52
2017-10-03T14:45:35.713Z,98256.41
2017-10-03T14:48:04.476Z,98249.26
2017-10-03T14:50:35.056Z,98256.36
2017-10-03T14:53:02.563Z,98259.92
2017-10-03T14:55:30.752Z,98260.47
2017-10-03T14:57:58.464Z,98261.79
2017-10-03T15:00:26.035Z,98273.53
2017-10-03T15:02:53.552Z,98278.92
2017-10-03T15:05:25.403Z,98274.74
2017-10-03T15:07:53.874Z,98279.19
2017-10-03T15:10:21.462Z,98280.16
2017-10-03T15:12:48.982Z,98287.23
2017-10-03T15:15:18.299Z,98286.52
2017-10-03T15:17:48.032Z,98292.64
2017-10-03T15:20:15.649Z,98294.98
2017-10-03T15:22:43.130Z,98296.24
2017-10-03T15:25:11.118Z,98294.36
2017-10-03T15:27:42.240Z,98295.41
2017-10-03T15:30:09.758Z,98291.53
2017-10-03T15:32:37.276Z,98301.18
2017-10-03T15:35:05.854Z,98303.57
2017-10-03T15:37:33.461Z,98300.63
2017-10-03T15:40:02.303Z,98302.31
2017-10-03T15:42:31.461Z,98300.95
2017-10-03T15:44:58.958Z,98307.75
2017-10-03T15:47:27.721Z,98312.43
2017-10-03T15:49:55.279Z,98314.44
2017-10-03T15:52:22.966Z,98314.14
2017-10-03T15:54:50.761Z,98325.64
2017-10-03T15:57:18.281Z,98327.52
2017-10-03T15:59:45.788Z,98328.92
2017-10-03T16:02:13.299Z,98329.81
2017-10-03T16:04:40.799Z,98335.34
2017-10-03T16:07:08.419Z,98340.55
2017-10-03T16:09:35.926Z,98355.83
2017-10-03T16:12:03.453Z,98362.27
2017-10-03T16:14:30.988Z,98365.62
2017-10-03T16:16:58.494Z,98375.88
2017-10-03T16:19:26.465Z,98375.11
2017-10-03T16:21:55.000Z,98372.47
2017-10-03T16:24:22.551Z,98367.42
2017-10-03T16:26:50.167Z,98368.61
2017-10-03T16:29:17.670Z,98365.45
2017-10-03T16:31:45.295Z,98374.92
2017-10-03T16:34:12.859Z,98354.56
2017-10-03T16:36:40.423Z,98384.61
2017-10-03T16:39:09.157Z,98390.13
2017-10-03T16:41:36.842Z,98392.06
2017-10-03T16:44:04.354Z,98401.22
2017-10-03T16:46:36.115Z,98402.39
2017-10-03T16:49:03.609Z,98395.09
2017-10-03T16:51:31.139Z,98402.38
2017-10-03T16:53:58.683Z,98407.80
2017-10-03T16:56:26.202Z,98411.19
2017-10-03T16:58:54.052Z,98415.36
2017-10-03T17:01:21.544Z,98416.31
2017-10-03T17:03:49.026Z,98414.47
2017-10-03T17:06:16.548Z,98424.00
2017-10-03T17:08:44.165Z,98432.30
2017-10-03T17:11:13.346Z,98433.30
2017-10-03T17:13:46.610Z,98434.27
2017-10-03T17:16:14.220Z,98446.30
2017-10-03T17:18:43.168Z,98445.64
2017-10-03T17:21:11.748Z,98449.77
2017-10-03T17:23:39.241Z,98422.39
2017-10-03T17:26:06.757Z,98454.19
2017-10-03T17:28:34.720Z,98462.49
2017-10-03T17:31:02.263Z,98462.17
2017-10-03T17:33:29.788Z,98468.53
2017-10-03T17:35:57.288Z,98466.38
2017-10-03T17:38:24.837Z,98473.51
2017-10-03T17:40:52.437Z,98464.48
2017-10-03T17:43:20.762Z,98469.14
2017-10-03T17:45:48.445Z,98471.05
2017-10-03T17:48:16.045Z,98480.69
2017-10-03T17:50:43.549Z,98476.13
2017-10-03T17:53:11.509Z,98489.98
2017-10-03T17:55:43.252Z,98490.30
2017-10-03T17:58:10.824Z,98495.98
2017-10-03T18:00:38.386Z,98508.38
2017-10-03T18:03:06.262Z,98506.05
2017-10-03T18:05:34.649Z,98501.88
2017-10-03T18:08:02.276Z,98509.66
2017-10-03T18:10:29.888Z,98516.55
2017-10-03T18:12:57.505Z,98514.69
2017-10-03T18:15:25.054Z,98507.05
2017-10-03T18:17:52.656Z,98514.79
2017-10-03T18:20:20.203Z,98512.89
2017-10-03T18:22:47.780Z,98513.80
2017-10-03T18:25:15.387Z,98516.70
2017-10-03T18:27:42.933Z,98511.91
2017-10-03T18:30:10.526Z,98520.68
2017-10-03T18:32:38.124Z,98521.44
2017-10-03T18:35:05.650Z,98519.28
2017-10-03T18:37:33.221Z,98524.52
2017-10-03T18:40:00.905Z,98529.16
2017-10-03T18:42:29.105Z,98531.20
2017-10-03T18:44:56.766Z,98536.42
2017-10-03T18:47:25.294Z,98545.96
2017-10-03T18:49:52.867Z,98544.05
2017-10-03T18:52:20.376Z,98541.24
2017-10-03T18:54:47.918Z,98542.45
2017-10-03T18:57:15.435Z,98539.59
2017-10-03T18:59:43.074Z,98540.66
2017-10-03T19:02:10.633Z,98546.96
2017-10-03T19:04:38.135Z,98542.91
2017-10-03T19:07:05.731Z,98551.00
2017-10-03T19:09:33.244Z,98559.49
2017-10-03T19:12:00.781Z,98546.25
2017-10-03T19:14:28.297Z,98563.18
2017-10-03T19:16:55.832Z,98567.67
2017-10-03T19:19:23.391Z,98571.10
2017-10-03T19:21:50.903Z,98574.59
2017-10-03T19:24:18.853Z,98589.21
2017-10-03T19:26:46.337Z,98593.03
2017-10-03T19:29:13.963Z,98589.59
2017-10-03T19:31:41.497Z,98585.64
2017-10-03T19:34:09.016Z,98587.23
2017-10-03T19:36:37.125Z,98596.03
2017-10-03T19:39:04.723Z,98598.17
2017-10-03T19:41:32.226Z,98603.50
2017-10-03T19:43:59.790Z,98606.15
2017-10-03T19:46:27.763Z,98603.92
2017-10-03T19:48:55.335Z,98607.38
2017-10-03T19:51:22.880Z,98611.11
2017-10-03T19:53:50.507Z,98613.38
2017-10-03T19:56:19.048Z,98610.27
2017-10-03T19:58:46.627Z,98612.27
2017-10-03T20:01:14.320Z,98603.34
2017-10-03T20:03:41.903Z,98604.82
2017-10-03T20:06:09.528Z,98609.77
2017-10-03T20:08:37.143Z,98609.62
2017-10-03T20:11:04.678Z,98609.86
2017-10-03T20:13:32.272Z,98616.49
2017-10-03T20:16:00.267Z,98613.72
2017-10-03T20:18:28.831Z,98624.34
2017-10-03T20:20:56.485Z,98630.16
2017-10-03T20:23:24.090Z,98633.70
2017-10-03T20:25:52.055Z,98624.76
2017-10-03T20:28:19.637Z,98610.08
2017-10-03T20:33:21.051Z,98615.09
2017-10-03T20:35:48.606Z,98616.05
2017-10-03T20:38:16.137Z,98623.62
2017-10-03T20:40:43.700Z,98628.57
2017-10-03T20:43:11.238Z,98629.37
2017-10-03T20:45:38.943Z,98630.87
2017-10-03T20:48:06.509Z,98646.35
2017-10-03T20:50:34.048Z,98646.89
2017-10-03T20:53:01.824Z,98642.84
2017-10-03T20:55:29.445Z,98629.41
2017-10-03T20:57:57.003Z,98634.53
2017-10-03T21:00:24.601Z,98642.64
2017-10-03T21:02:52.336Z,98651.69
2017-10-03T21:05:19.941Z,98645.67
2017-10-03T21:07:47.789Z,98640.45
2017-10-03T21:10:15.603Z,98649.52
2017-10-03T21:12:43.407Z,98649.05
2017-10-03T21:15:11.111Z,98649.59
2017-10-03T21:17:38.655Z,98649.40
2017-10-03T21:20:06.477Z,98648.81
2017-10-03T21:22:34.242Z,98663.38
2017-10-03T21:25:01.817Z,98666.04
2017-10-03T21:27:29.423Z,98669.55
2017-10-03T21:29:57.063Z,98674.30
2017-10-03T21:32:24.716Z,98681.19
2017-10-03T21:34:52.331Z,98678.37
2017-10-03T21:37:20.174Z,98687.23
2017-10-03T21:39:47.993Z,98683.63
2017-10-03T21:42:27.490Z,98683.88
2017-10-03T21:44:55.089Z,98676.33
2017-10-03T21:47:23.545Z,98682.86
2017-10-03T21:49:51.364Z,98676.84
2017-10-03T21:52:18.879Z,98680.07
2017-10-03T21:54:46.546Z,98684.27
2017-10-03T21:57:14.396Z,98686.87
2017-10-03T21:59:42.091Z,98681.00
2017-10-03T22:02:10.128Z,98678.98
2017-10-03T22:04:38.285Z,98682.75
2017-10-03T22:07:06.328Z,98683.15
2017-10-03T22:09:34.587Z,98682.50
2017-10-03T22:12:02.397Z,98675.77
2017-10-03T22:14:29.974Z,98676.03
2017-10-03T22:16:57.522Z,98667.94
2017-10-03T22:19:25.249Z,98676.42
2017-10-03T22:21:52.831Z,98685.05
2017-10-03T22:24:20.404Z,98681.11
2017-10-03T22:26:48.096Z,98681.25
2017-10-03T22:31:49.834Z,98683.27
